UTTT/TAS METAR and TAF weather

Enter ICAO airport designator
Station Type Date Time Source
UTTT METAR 2020/06/05 12:00 UTC NOAA

UTTT 051200Z 32016G32KT 3000 TS -DS SCT066CB 32/09 Q1006 R26R/CLRD70 TEMPO -TSRA SCT050CB


Station Type Date Time Source
UTTT Decoded METAR 2020/06/05 12:00 UTC NOAA

Tashkent, Uzbekistan (UTTT) 41-16N 069-16E 488M
Jun 05, 2020 - 08:00 AM EDT / 2020.06.05 1200 UTC
Wind: from the NW (320 degrees) at 18 MPH (16 KT) gusting to 37 MPH (32 KT):0
Visibility: 1 mile(s):0
Sky conditions: partly cloudy
Weather: thunder; light duststorm; Cumulonimbus clouds observed
Temperature: 89 F (32 C)
Dew Point: 48 F (9 C)
Relative Humidity: 24%
Pressure (altimeter): 29.71 in. Hg (1006 hPa)
ob: UTTT 051200Z 32016G32KT 3000 TS -DS SCT066CB 32/09 Q1006 R26R/CLRD70 TEMPO -TSRA SCT050CB
cycle: 12

Station Type Date Time Source
UTTT TAF 2020/06/05 12:09 UTC NOAA

TAF UTTT 051100Z 0512/0612 24012KT 7000 FEW060CB SCT100 TX35/0610Z
TEMPO 0512/0518 27020G30KT 3000 -TSRA -DS SCT050CB BKN100

Example: see airport list